sensor_id;sensor_type;location;lat;lon;timestamp;P1;durP1;ratioP1;P2;durP2;ratioP2
43996;SDS011;34318;45.818;15.964;2023-08-20T00:01:37;10.88;;;9.80;;
43996;SDS011;34318;45.818;15.964;2023-08-20T00:04:04;10.43;;;9.48;;
43996;SDS011;34318;45.818;15.964;2023-08-20T00:06:32;9.70;;;8.95;;
43996;SDS011;34318;45.818;15.964;2023-08-20T00:08:59;10.23;;;9.32;;
43996;SDS011;34318;45.818;15.964;2023-08-20T00:11:27;9.50;;;8.80;;
43996;SDS011;34318;45.818;15.964;2023-08-20T00:13:54;9.75;;;8.93;;
43996;SDS011;34318;45.818;15.964;2023-08-20T00:16:21;9.68;;;8.98;;
43996;SDS011;34318;45.818;15.964;2023-08-20T00:18:49;10.35;;;9.50;;
43996;SDS011;34318;45.818;15.964;2023-08-20T00:21:16;9.50;;;8.63;;
43996;SDS011;34318;45.818;15.964;2023-08-20T00:23:43;9.48;;;8.77;;
43996;SDS011;34318;45.818;15.964;2023-08-20T00:26:11;11.70;;;10.80;;
43996;SDS011;34318;45.818;15.964;2023-08-20T00:28:38;18.65;;;17.15;;
43996;SDS011;34318;45.818;15.964;2023-08-20T00:31:05;45.13;;;41.30;;
43996;SDS011;34318;45.818;15.964;2023-08-20T00:33:33;53.30;;;48.75;;
43996;SDS011;34318;45.818;15.964;2023-08-20T00:36:00;53.85;;;49.47;;
43996;SDS011;34318;45.818;15.964;2023-08-20T00:38:27;45.90;;;42.20;;
43996;SDS011;34318;45.818;15.964;2023-08-20T00:40:55;34.70;;;31.60;;
43996;SDS011;34318;45.818;15.964;2023-08-20T00:43:22;27.92;;;25.73;;
43996;SDS011;34318;45.818;15.964;2023-08-20T00:45:49;25.30;;;22.65;;
43996;SDS011;34318;45.818;15.964;2023-08-20T00:48:16;18.98;;;17.38;;
43996;SDS011;34318;45.818;15.964;2023-08-20T00:50:44;15.38;;;14.07;;
43996;SDS011;34318;45.818;15.964;2023-08-20T00:53:11;14.60;;;13.40;;
43996;SDS011;34318;45.818;15.964;2023-08-20T00:55:40;12.95;;;11.95;;
43996;SDS011;34318;45.818;15.964;2023-08-20T00:58:08;11.73;;;10.80;;
43996;SDS011;34318;45.818;15.964;2023-08-20T01:00:36;11.82;;;10.88;;
43996;SDS011;34318;45.818;15.964;2023-08-20T01:03:03;12.23;;;11.25;;
43996;SDS011;34318;45.818;15.964;2023-08-20T01:05:32;10.27;;;9.48;;
43996;SDS011;34318;45.818;15.964;2023-08-20T01:10:40;10.10;;;9.30;;
43996;SDS011;34318;45.818;15.964;2023-08-20T01:13:10;10.10;;;9.38;;
43996;SDS011;34318;45.818;15.964;2023-08-20T01:15:37;10.63;;;9.77;;
43996;SDS011;34318;45.818;15.964;2023-08-20T01:18:05;10.45;;;9.65;;
43996;SDS011;34318;45.818;15.964;2023-08-20T01:20:33;9.85;;;9.15;;
43996;SDS011;34318;45.818;15.964;2023-08-20T01:30:44;9.70;;;8.80;;
43996;SDS011;34318;45.818;15.964;2023-08-20T01:33:12;10.35;;;9.43;;
43996;SDS011;34318;45.818;15.964;2023-08-20T01:35:41;9.45;;;8.63;;
43996;SDS011;34318;45.818;15.964;2023-08-20T01:38:08;10.18;;;9.32;;
43996;SDS011;34318;45.818;15.964;2023-08-20T01:40:35;10.10;;;9.13;;
43996;SDS011;34318;45.818;15.964;2023-08-20T01:43:02;9.70;;;8.80;;
43996;SDS011;34318;45.818;15.964;2023-08-20T01:45:29;9.25;;;8.40;;
43996;SDS011;34318;45.818;15.964;2023-08-20T01:47:57;10.32;;;9.23;;
43996;SDS011;34318;45.818;15.964;2023-08-20T01:50:24;10.30;;;9.35;;
43996;SDS011;34318;45.818;15.964;2023-08-20T01:52:51;9.10;;;8.40;;
43996;SDS011;34318;45.818;15.964;2023-08-20T01:55:18;9.48;;;8.68;;
43996;SDS011;34318;45.818;15.964;2023-08-20T01:57:45;9.00;;;8.23;;
43996;SDS011;34318;45.818;15.964;2023-08-20T02:00:13;9.02;;;8.32;;
43996;SDS011;34318;45.818;15.964;2023-08-20T02:02:40;9.95;;;9.00;;
43996;SDS011;34318;45.818;15.964;2023-08-20T02:05:07;9.25;;;8.45;;
43996;SDS011;34318;45.818;15.964;2023-08-20T02:07:37;10.15;;;9.15;;
43996;SDS011;34318;45.818;15.964;2023-08-20T02:10:04;9.40;;;8.45;;
43996;SDS011;34318;45.818;15.964;2023-08-20T02:12:31;10.18;;;9.23;;
43996;SDS011;34318;45.818;15.964;2023-08-20T02:14:58;9.77;;;8.80;;
43996;SDS011;34318;45.818;15.964;2023-08-20T02:17:26;9.27;;;8.45;;
43996;SDS011;34318;45.818;15.964;2023-08-20T02:19:53;9.10;;;8.30;;
43996;SDS011;34318;45.818;15.964;2023-08-20T02:22:20;9.10;;;8.30;;
43996;SDS011;34318;45.818;15.964;2023-08-20T02:24:47;9.25;;;8.45;;
43996;SDS011;34318;45.818;15.964;2023-08-20T02:27:15;8.60;;;7.90;;
43996;SDS011;34318;45.818;15.964;2023-08-20T02:29:42;8.35;;;7.65;;
43996;SDS011;34318;45.818;15.964;2023-08-20T02:32:09;8.13;;;7.53;;
43996;SDS011;34318;45.818;15.964;2023-08-20T02:34:36;8.48;;;7.88;;
43996;SDS011;34318;45.818;15.964;2023-08-20T02:37:04;7.88;;;7.28;;
43996;SDS011;34318;45.818;15.964;2023-08-20T02:39:31;8.55;;;7.85;;
43996;SDS011;34318;45.818;15.964;2023-08-20T02:41:59;9.60;;;8.88;;
43996;SDS011;34318;45.818;15.964;2023-08-20T02:44:26;8.70;;;8.07;;
43996;SDS011;34318;45.818;15.964;2023-08-20T02:46:53;8.93;;;8.27;;
43996;SDS011;34318;45.818;15.964;2023-08-20T02:49:20;9.60;;;8.80;;
43996;SDS011;34318;45.818;15.964;2023-08-20T02:51:47;8.80;;;8.10;;
43996;SDS011;34318;45.818;15.964;2023-08-20T02:54:14;9.85;;;8.52;;
43996;SDS011;34318;45.818;15.964;2023-08-20T02:56:42;9.40;;;8.57;;
43996;SDS011;34318;45.818;15.964;2023-08-20T02:59:09;10.30;;;8.10;;
43996;SDS011;34318;45.818;15.964;2023-08-20T03:01:36;9.00;;;8.30;;
43996;SDS011;34318;45.818;15.964;2023-08-20T03:04:03;9.05;;;8.25;;
43996;SDS011;34318;45.818;15.964;2023-08-20T03:06:31;8.60;;;7.80;;
43996;SDS011;34318;45.818;15.964;2023-08-20T03:08:58;9.40;;;8.60;;
43996;SDS011;34318;45.818;15.964;2023-08-20T03:11:25;9.23;;;8.40;;
43996;SDS011;34318;45.818;15.964;2023-08-20T03:13:52;8.82;;;8.13;;
43996;SDS011;34318;45.818;15.964;2023-08-20T03:16:19;9.02;;;8.32;;
43996;SDS011;34318;45.818;15.964;2023-08-20T03:18:47;8.90;;;8.20;;
43996;SDS011;34318;45.818;15.964;2023-08-20T03:21:14;8.50;;;7.80;;
43996;SDS011;34318;45.818;15.964;2023-08-20T03:23:41;9.00;;;8.30;;
43996;SDS011;34318;45.818;15.964;2023-08-20T03:26:08;9.65;;;8.70;;
43996;SDS011;34318;45.818;15.964;2023-08-20T03:28:35;9.05;;;8.25;;
43996;SDS011;34318;45.818;15.964;2023-08-20T03:31:02;8.50;;;7.75;;
43996;SDS011;34318;45.818;15.964;2023-08-20T03:33:30;8.85;;;8.15;;
43996;SDS011;34318;45.818;15.964;2023-08-20T03:35:57;8.50;;;7.80;;
43996;SDS011;34318;45.818;15.964;2023-08-20T03:38:25;8.63;;;8.02;;
43996;SDS011;34318;45.818;15.964;2023-08-20T03:40:54;8.82;;;8.23;;
43996;SDS011;34318;45.818;15.964;2023-08-20T03:43:22;8.13;;;7.53;;
43996;SDS011;34318;45.818;15.964;2023-08-20T03:45:50;8.60;;;7.90;;
43996;SDS011;34318;45.818;15.964;2023-08-20T03:48:18;8.93;;;8.13;;
43996;SDS011;34318;45.818;15.964;2023-08-20T03:50:45;8.90;;;8.27;;
43996;SDS011;34318;45.818;15.964;2023-08-20T03:53:12;8.50;;;7.80;;
43996;SDS011;34318;45.818;15.964;2023-08-20T03:55:39;9.07;;;8.30;;
43996;SDS011;34318;45.818;15.964;2023-08-20T03:58:07;8.73;;;8.02;;
43996;SDS011;34318;45.818;15.964;2023-08-20T04:00:34;8.98;;;8.15;;
43996;SDS011;34318;45.818;15.964;2023-08-20T04:03:02;8.90;;;8.00;;
43996;SDS011;34318;45.818;15.964;2023-08-20T04:05:29;9.15;;;8.45;;
43996;SDS011;34318;45.818;15.964;2023-08-20T04:07:56;9.43;;;8.68;;
43996;SDS011;34318;45.818;15.964;2023-08-20T04:10:23;8.68;;;7.88;;
43996;SDS011;34318;45.818;15.964;2023-08-20T04:12:51;9.55;;;8.75;;
43996;SDS011;34318;45.818;15.964;2023-08-20T04:15:18;8.93;;;8.23;;
43996;SDS011;34318;45.818;15.964;2023-08-20T04:17:45;8.93;;;8.25;;
43996;SDS011;34318;45.818;15.964;2023-08-20T04:20:13;8.52;;;7.82;;
43996;SDS011;34318;45.818;15.964;2023-08-20T04:22:40;8.45;;;7.72;;
43996;SDS011;34318;45.818;15.964;2023-08-20T04:25:08;8.73;;;8.02;;
43996;SDS011;34318;45.818;15.964;2023-08-20T04:27:35;8.10;;;7.50;;
43996;SDS011;34318;45.818;15.964;2023-08-20T04:30:03;8.32;;;7.72;;
43996;SDS011;34318;45.818;15.964;2023-08-20T04:32:30;8.77;;;8.05;;
43996;SDS011;34318;45.818;15.964;2023-08-20T04:34:58;7.70;;;7.10;;
43996;SDS011;34318;45.818;15.964;2023-08-20T04:37:25;8.52;;;7.93;;
43996;SDS011;34318;45.818;15.964;2023-08-20T04:39:52;7.57;;;6.97;;
43996;SDS011;34318;45.818;15.964;2023-08-20T04:42:20;8.35;;;7.55;;
43996;SDS011;34318;45.818;15.964;2023-08-20T04:44:47;8.07;;;7.40;;
43996;SDS011;34318;45.818;15.964;2023-08-20T04:47:14;7.82;;;7.28;;
43996;SDS011;34318;45.818;15.964;2023-08-20T04:49:41;7.97;;;7.38;;
43996;SDS011;34318;45.818;15.964;2023-08-20T04:52:08;8.27;;;7.57;;
43996;SDS011;34318;45.818;15.964;2023-08-20T04:54:36;7.82;;;7.22;;
43996;SDS011;34318;45.818;15.964;2023-08-20T04:57:03;8.30;;;7.63;;
43996;SDS011;34318;45.818;15.964;2023-08-20T04:59:30;8.02;;;7.43;;
43996;SDS011;34318;45.818;15.964;2023-08-20T05:01:57;8.02;;;7.38;;
43996;SDS011;34318;45.818;15.964;2023-08-20T05:04:25;7.78;;;7.18;;
43996;SDS011;34318;45.818;15.964;2023-08-20T05:06:52;7.60;;;7.05;;
43996;SDS011;34318;45.818;15.964;2023-08-20T05:09:19;7.75;;;7.15;;
43996;SDS011;34318;45.818;15.964;2023-08-20T05:11:46;8.48;;;7.78;;
43996;SDS011;34318;45.818;15.964;2023-08-20T05:14:14;8.23;;;7.63;;
43996;SDS011;34318;45.818;15.964;2023-08-20T05:16:41;8.05;;;7.35;;
43996;SDS011;34318;45.818;15.964;2023-08-20T05:19:08;7.70;;;7.10;;
43996;SDS011;34318;45.818;15.964;2023-08-20T05:21:35;8.20;;;7.60;;
43996;SDS011;34318;45.818;15.964;2023-08-20T05:24:03;7.60;;;6.90;;
43996;SDS011;34318;45.818;15.964;2023-08-20T05:26:30;8.00;;;7.40;;
43996;SDS011;34318;45.818;15.964;2023-08-20T05:28:57;9.45;;;8.70;;
43996;SDS011;34318;45.818;15.964;2023-08-20T05:31:24;7.38;;;6.88;;
43996;SDS011;34318;45.818;15.964;2023-08-20T05:33:52;7.95;;;7.32;;
43996;SDS011;34318;45.818;15.964;2023-08-20T05:36:19;7.53;;;6.93;;
43996;SDS011;34318;45.818;15.964;2023-08-20T05:38:46;7.93;;;7.32;;
43996;SDS011;34318;45.818;15.964;2023-08-20T05:41:13;7.80;;;6.93;;
43996;SDS011;34318;45.818;15.964;2023-08-20T05:43:40;8.52;;;7.72;;
43996;SDS011;34318;45.818;15.964;2023-08-20T05:46:08;7.63;;;7.13;;
43996;SDS011;34318;45.818;15.964;2023-08-20T05:48:35;8.80;;;8.00;;
43996;SDS011;34318;45.818;15.964;2023-08-20T05:51:02;7.80;;;7.20;;
43996;SDS011;34318;45.818;15.964;2023-08-20T05:53:29;7.78;;;7.10;;
43996;SDS011;34318;45.818;15.964;2023-08-20T05:55:56;8.35;;;7.55;;
43996;SDS011;34318;45.818;15.964;2023-08-20T05:58:26;8.38;;;7.68;;
43996;SDS011;34318;45.818;15.964;2023-08-20T06:00:53;9.00;;;8.20;;
43996;SDS011;34318;45.818;15.964;2023-08-20T06:03:21;8.38;;;7.68;;
43996;SDS011;34318;45.818;15.964;2023-08-20T06:05:48;8.65;;;7.95;;
43996;SDS011;34318;45.818;15.964;2023-08-20T06:08:15;8.35;;;7.57;;
43996;SDS011;34318;45.818;15.964;2023-08-20T06:10:42;8.75;;;8.05;;
43996;SDS011;34318;45.818;15.964;2023-08-20T06:13:10;8.73;;;8.02;;
43996;SDS011;34318;45.818;15.964;2023-08-20T06:15:37;8.10;;;7.47;;
43996;SDS011;34318;45.818;15.964;2023-08-20T06:18:04;8.25;;;7.47;;
43996;SDS011;34318;45.818;15.964;2023-08-20T06:20:32;8.57;;;7.95;;
43996;SDS011;34318;45.818;15.964;2023-08-20T06:22:59;8.80;;;8.10;;
43996;SDS011;34318;45.818;15.964;2023-08-20T06:25:26;8.68;;;7.97;;
43996;SDS011;34318;45.818;15.964;2023-08-20T06:27:53;8.50;;;7.80;;
43996;SDS011;34318;45.818;15.964;2023-08-20T06:30:20;9.10;;;8.40;;
43996;SDS011;34318;45.818;15.964;2023-08-20T06:32:47;9.40;;;8.70;;
43996;SDS011;34318;45.818;15.964;2023-08-20T06:35:15;8.82;;;8.02;;
43996;SDS011;34318;45.818;15.964;2023-08-20T06:37:42;9.63;;;8.93;;
43996;SDS011;34318;45.818;15.964;2023-08-20T06:40:11;8.88;;;8.18;;
43996;SDS011;34318;45.818;15.964;2023-08-20T06:42:40;8.18;;;7.57;;
43996;SDS011;34318;45.818;15.964;2023-08-20T06:45:07;9.82;;;9.00;;
43996;SDS011;34318;45.818;15.964;2023-08-20T06:47:35;9.35;;;8.55;;
43996;SDS011;34318;45.818;15.964;2023-08-20T06:50:03;9.65;;;8.85;;
43996;SDS011;34318;45.818;15.964;2023-08-20T06:52:31;9.25;;;8.55;;
43996;SDS011;34318;45.818;15.964;2023-08-20T06:54:58;9.73;;;8.93;;
43996;SDS011;34318;45.818;15.964;2023-08-20T06:57:25;8.95;;;8.20;;
43996;SDS011;34318;45.818;15.964;2023-08-20T06:59:52;11.18;;;10.25;;
43996;SDS011;34318;45.818;15.964;2023-08-20T07:02:19;10.27;;;9.48;;
43996;SDS011;34318;45.818;15.964;2023-08-20T07:04:47;12.50;;;11.50;;
43996;SDS011;34318;45.818;15.964;2023-08-20T07:07:14;13.18;;;12.18;;
43996;SDS011;34318;45.818;15.964;2023-08-20T07:09:42;13.55;;;12.43;;
43996;SDS011;34318;45.818;15.964;2023-08-20T07:12:09;14.73;;;13.63;;
43996;SDS011;34318;45.818;15.964;2023-08-20T07:14:36;13.57;;;12.50;;
43996;SDS011;34318;45.818;15.964;2023-08-20T07:17:03;13.38;;;12.32;;
43996;SDS011;34318;45.818;15.964;2023-08-20T07:19:31;15.02;;;13.82;;
43996;SDS011;34318;45.818;15.964;2023-08-20T07:21:58;15.23;;;14.02;;
43996;SDS011;34318;45.818;15.964;2023-08-20T07:24:25;13.05;;;12.05;;
43996;SDS011;34318;45.818;15.964;2023-08-20T07:26:55;12.75;;;11.75;;
43996;SDS011;34318;45.818;15.964;2023-08-20T07:29:26;13.35;;;12.30;;
43996;SDS011;34318;45.818;15.964;2023-08-20T07:31:56;12.90;;;11.73;;
43996;SDS011;34318;45.818;15.964;2023-08-20T07:34:23;13.48;;;12.48;;
43996;SDS011;34318;45.818;15.964;2023-08-20T07:36:50;12.13;;;11.10;;
43996;SDS011;34318;45.818;15.964;2023-08-20T07:39:18;13.90;;;12.70;;
43996;SDS011;34318;45.818;15.964;2023-08-20T07:41:45;12.63;;;11.63;;
43996;SDS011;34318;45.818;15.964;2023-08-20T07:44:12;11.60;;;10.70;;
43996;SDS011;34318;45.818;15.964;2023-08-20T07:46:39;11.18;;;10.27;;
43996;SDS011;34318;45.818;15.964;2023-08-20T07:49:07;10.70;;;9.80;;
43996;SDS011;34318;45.818;15.964;2023-08-20T07:51:34;11.57;;;10.75;;
43996;SDS011;34318;45.818;15.964;2023-08-20T07:54:01;10.68;;;9.80;;
43996;SDS011;34318;45.818;15.964;2023-08-20T07:56:28;11.75;;;10.85;;
43996;SDS011;34318;45.818;15.964;2023-08-20T07:58:55;12.35;;;11.40;;
43996;SDS011;34318;45.818;15.964;2023-08-20T08:01:22;10.80;;;10.00;;
43996;SDS011;34318;45.818;15.964;2023-08-20T08:03:50;11.63;;;10.68;;
43996;SDS011;34318;45.818;15.964;2023-08-20T08:06:17;11.93;;;10.90;;
43996;SDS011;34318;45.818;15.964;2023-08-20T08:08:44;10.43;;;9.57;;
43996;SDS011;34318;45.818;15.964;2023-08-20T08:11:11;10.63;;;9.70;;
43996;SDS011;34318;45.818;15.964;2023-08-20T08:13:39;11.90;;;10.75;;
43996;SDS011;34318;45.818;15.964;2023-08-20T08:16:06;10.68;;;9.88;;
43996;SDS011;34318;45.818;15.964;2023-08-20T08:18:33;10.68;;;9.77;;
43996;SDS011;34318;45.818;15.964;2023-08-20T08:21:00;10.45;;;9.63;;
43996;SDS011;34318;45.818;15.964;2023-08-20T08:23:27;9.43;;;8.73;;
43996;SDS011;34318;45.818;15.964;2023-08-20T08:25:54;10.43;;;9.43;;
43996;SDS011;34318;45.818;15.964;2023-08-20T08:28:22;10.65;;;9.77;;
43996;SDS011;34318;45.818;15.964;2023-08-20T08:30:49;11.07;;;10.00;;
43996;SDS011;34318;45.818;15.964;2023-08-20T08:33:16;10.00;;;9.25;;
43996;SDS011;34318;45.818;15.964;2023-08-20T08:35:44;10.30;;;9.50;;
43996;SDS011;34318;45.818;15.964;2023-08-20T08:38:11;10.63;;;9.73;;
43996;SDS011;34318;45.818;15.964;2023-08-20T08:40:38;10.48;;;9.48;;
43996;SDS011;34318;45.818;15.964;2023-08-20T08:43:07;10.95;;;10.15;;
43996;SDS011;34318;45.818;15.964;2023-08-20T08:45:40;10.25;;;9.55;;
43996;SDS011;34318;45.818;15.964;2023-08-20T08:48:08;10.13;;;9.32;;
43996;SDS011;34318;45.818;15.964;2023-08-20T08:50:35;11.45;;;10.45;;
43996;SDS011;34318;45.818;15.964;2023-08-20T08:53:03;11.07;;;10.07;;
43996;SDS011;34318;45.818;15.964;2023-08-20T08:55:30;10.43;;;9.63;;
43996;SDS011;34318;45.818;15.964;2023-08-20T08:57:58;10.95;;;10.15;;
43996;SDS011;34318;45.818;15.964;2023-08-20T09:00:25;10.48;;;9.68;;
43996;SDS011;34318;45.818;15.964;2023-08-20T09:02:52;9.70;;;9.00;;
43996;SDS011;34318;45.818;15.964;2023-08-20T09:05:19;10.13;;;9.32;;
43996;SDS011;34318;45.818;15.964;2023-08-20T09:07:47;9.93;;;8.98;;
43996;SDS011;34318;45.818;15.964;2023-08-20T09:10:16;10.18;;;9.38;;
43996;SDS011;34318;45.818;15.964;2023-08-20T09:12:44;10.63;;;9.73;;
43996;SDS011;34318;45.818;15.964;2023-08-20T09:15:14;10.32;;;9.52;;
43996;SDS011;34318;45.818;15.964;2023-08-20T09:17:41;10.45;;;9.65;;
43996;SDS011;34318;45.818;15.964;2023-08-20T09:20:09;10.63;;;9.75;;
43996;SDS011;34318;45.818;15.964;2023-08-20T09:22:36;9.90;;;9.20;;
43996;SDS011;34318;45.818;15.964;2023-08-20T09:25:04;9.82;;;9.10;;
43996;SDS011;34318;45.818;15.964;2023-08-20T09:27:31;10.57;;;9.68;;
43996;SDS011;34318;45.818;15.964;2023-08-20T09:30:06;11.05;;;10.25;;
43996;SDS011;34318;45.818;15.964;2023-08-20T09:32:34;10.43;;;9.63;;
43996;SDS011;34318;45.818;15.964;2023-08-20T09:35:01;10.57;;;9.68;;
43996;SDS011;34318;45.818;15.964;2023-08-20T09:37:28;11.27;;;10.32;;
43996;SDS011;34318;45.818;15.964;2023-08-20T09:39:55;11.30;;;10.32;;
43996;SDS011;34318;45.818;15.964;2023-08-20T09:42:23;11.98;;;10.88;;
43996;SDS011;34318;45.818;15.964;2023-08-20T09:44:51;11.00;;;9.90;;
43996;SDS011;34318;45.818;15.964;2023-08-20T09:47:19;14.25;;;9.50;;
43996;SDS011;34318;45.818;15.964;2023-08-20T09:49:48;11.20;;;9.55;;
43996;SDS011;34318;45.818;15.964;2023-08-20T09:52:25;10.15;;;9.27;;
43996;SDS011;34318;45.818;15.964;2023-08-20T09:55:08;15.95;;;10.35;;
43996;SDS011;34318;45.818;15.964;2023-08-20T09:57:37;17.08;;;11.18;;
43996;SDS011;34318;45.818;15.964;2023-08-20T10:00:08;14.18;;;10.25;;
43996;SDS011;34318;45.818;15.964;2023-08-20T10:02:36;15.82;;;10.68;;
43996;SDS011;34318;45.818;15.964;2023-08-20T10:05:07;11.63;;;10.50;;
43996;SDS011;34318;45.818;15.964;2023-08-20T10:07:35;17.17;;;10.48;;
43996;SDS011;34318;45.818;15.964;2023-08-20T10:10:03;13.25;;;10.85;;
43996;SDS011;34318;45.818;15.964;2023-08-20T10:12:31;11.43;;;10.32;;
43996;SDS011;34318;45.818;15.964;2023-08-20T10:14:59;11.02;;;9.75;;
43996;SDS011;34318;45.818;15.964;2023-08-20T10:17:30;13.13;;;10.65;;
43996;SDS011;34318;45.818;15.964;2023-08-20T10:20:03;12.50;;;11.50;;
43996;SDS011;34318;45.818;15.964;2023-08-20T10:22:38;13.55;;;9.90;;
43996;SDS011;34318;45.818;15.964;2023-08-20T10:25:06;11.65;;;10.02;;
43996;SDS011;34318;45.818;15.964;2023-08-20T10:27:34;14.32;;;10.43;;
43996;SDS011;34318;45.818;15.964;2023-08-20T10:30:07;11.65;;;10.45;;
43996;SDS011;34318;45.818;15.964;2023-08-20T10:32:54;13.57;;;11.48;;
43996;SDS011;34318;45.818;15.964;2023-08-20T10:35:23;21.20;;;10.77;;
43996;SDS011;34318;45.818;15.964;2023-08-20T10:38:00;10.77;;;9.50;;
43996;SDS011;34318;45.818;15.964;2023-08-20T10:45:44;10.88;;;9.75;;
43996;SDS011;34318;45.818;15.964;2023-08-20T10:48:12;10.65;;;9.45;;
43996;SDS011;34318;45.818;15.964;2023-08-20T10:50:39;10.52;;;9.40;;
43996;SDS011;34318;45.818;15.964;2023-08-20T10:53:07;16.23;;;10.65;;
43996;SDS011;34318;45.818;15.964;2023-08-20T10:55:34;10.63;;;9.50;;
43996;SDS011;34318;45.818;15.964;2023-08-20T10:58:02;11.32;;;10.23;;
43996;SDS011;34318;45.818;15.964;2023-08-20T11:00:32;12.82;;;9.93;;
43996;SDS011;34318;45.818;15.964;2023-08-20T11:02:59;12.80;;;10.82;;
43996;SDS011;34318;45.818;15.964;2023-08-20T11:05:27;11.57;;;10.50;;
43996;SDS011;34318;45.818;15.964;2023-08-20T11:07:54;13.07;;;11.45;;
43996;SDS011;34318;45.818;15.964;2023-08-20T11:10:21;18.20;;;10.07;;
43996;SDS011;34318;45.818;15.964;2023-08-20T11:12:48;12.25;;;10.68;;
43996;SDS011;34318;45.818;15.964;2023-08-20T11:15:16;12.48;;;9.32;;
43996;SDS011;34318;45.818;15.964;2023-08-20T11:17:46;15.68;;;12.35;;
43996;SDS011;34318;45.818;15.964;2023-08-20T11:20:16;18.02;;;13.25;;
43996;SDS011;34318;45.818;15.964;2023-08-20T11:22:44;12.88;;;11.60;;
43996;SDS011;34318;45.818;15.964;2023-08-20T11:25:11;19.25;;;12.85;;
43996;SDS011;34318;45.818;15.964;2023-08-20T11:27:42;21.05;;;13.65;;
43996;SDS011;34318;45.818;15.964;2023-08-20T11:30:10;26.00;;;16.08;;
43996;SDS011;34318;45.818;15.964;2023-08-20T11:32:41;20.58;;;14.27;;
43996;SDS011;34318;45.818;15.964;2023-08-20T11:35:09;21.10;;;14.30;;
43996;SDS011;34318;45.818;15.964;2023-08-20T11:37:37;22.30;;;14.25;;
43996;SDS011;34318;45.818;15.964;2023-08-20T11:40:07;27.92;;;15.40;;
43996;SDS011;34318;45.818;15.964;2023-08-20T11:42:34;21.55;;;14.07;;
43996;SDS011;34318;45.818;15.964;2023-08-20T11:45:01;25.25;;;16.67;;
43996;SDS011;34318;45.818;15.964;2023-08-20T11:47:29;30.40;;;15.00;;
43996;SDS011;34318;45.818;15.964;2023-08-20T11:50:03;25.52;;;15.15;;
43996;SDS011;34318;45.818;15.964;2023-08-20T11:52:31;25.20;;;15.75;;
43996;SDS011;34318;45.818;15.964;2023-08-20T11:54:59;22.33;;;14.45;;
43996;SDS011;34318;45.818;15.964;2023-08-20T11:57:30;23.00;;;14.75;;
43996;SDS011;34318;45.818;15.964;2023-08-20T12:00:03;24.13;;;15.20;;
43996;SDS011;34318;45.818;15.964;2023-08-20T12:02:30;20.38;;;15.20;;
43996;SDS011;34318;45.818;15.964;2023-08-20T12:05:05;18.92;;;14.90;;
43996;SDS011;34318;45.818;15.964;2023-08-20T12:07:33;17.48;;;14.68;;
43996;SDS011;34318;45.818;15.964;2023-08-20T12:10:18;19.30;;;13.65;;
43996;SDS011;34318;45.818;15.964;2023-08-20T12:12:47;16.90;;;13.00;;
43996;SDS011;34318;45.818;15.964;2023-08-20T12:15:15;18.38;;;13.05;;
43996;SDS011;34318;45.818;15.964;2023-08-20T12:17:42;21.08;;;14.02;;
43996;SDS011;34318;45.818;15.964;2023-08-20T12:20:09;23.67;;;15.80;;
43996;SDS011;34318;45.818;15.964;2023-08-20T12:22:40;23.30;;;14.32;;
43996;SDS011;34318;45.818;15.964;2023-08-20T12:25:07;20.70;;;14.52;;
43996;SDS011;34318;45.818;15.964;2023-08-20T12:27:34;20.17;;;12.93;;
43996;SDS011;34318;45.818;15.964;2023-08-20T12:30:02;20.08;;;12.90;;
43996;SDS011;34318;45.818;15.964;2023-08-20T12:32:30;19.45;;;12.77;;
43996;SDS011;34318;45.818;15.964;2023-08-20T12:34:57;18.42;;;13.93;;
43996;SDS011;34318;45.818;15.964;2023-08-20T12:37:24;17.35;;;12.73;;
43996;SDS011;34318;45.818;15.964;2023-08-20T12:39:51;16.83;;;13.90;;
43996;SDS011;34318;45.818;15.964;2023-08-20T12:42:18;20.58;;;13.07;;
43996;SDS011;34318;45.818;15.964;2023-08-20T12:44:46;19.60;;;12.75;;
43996;SDS011;34318;45.818;15.964;2023-08-20T12:47:13;18.77;;;13.48;;
43996;SDS011;34318;45.818;15.964;2023-08-20T12:49:40;19.33;;;12.60;;
43996;SDS011;34318;45.818;15.964;2023-08-20T12:52:07;20.13;;;12.82;;
43996;SDS011;34318;45.818;15.964;2023-08-20T12:54:35;15.45;;;12.13;;
43996;SDS011;34318;45.818;15.964;2023-08-20T12:57:02;16.05;;;12.18;;
43996;SDS011;34318;45.818;15.964;2023-08-20T12:59:30;16.30;;;11.15;;
43996;SDS011;34318;45.818;15.964;2023-08-20T13:01:57;15.73;;;11.43;;
43996;SDS011;34318;45.818;15.964;2023-08-20T13:04:24;14.23;;;11.93;;
43996;SDS011;34318;45.818;15.964;2023-08-20T13:06:52;16.75;;;11.20;;
43996;SDS011;34318;45.818;15.964;2023-08-20T13:09:19;17.70;;;11.05;;
43996;SDS011;34318;45.818;15.964;2023-08-20T13:11:46;15.18;;;11.77;;
43996;SDS011;34318;45.818;15.964;2023-08-20T13:14:14;15.40;;;12.07;;
43996;SDS011;34318;45.818;15.964;2023-08-20T13:16:41;13.45;;;11.68;;
43996;SDS011;34318;45.818;15.964;2023-08-20T13:19:09;15.02;;;12.20;;
43996;SDS011;34318;45.818;15.964;2023-08-20T13:21:36;23.85;;;12.77;;
43996;SDS011;34318;45.818;15.964;2023-08-20T13:24:03;15.55;;;11.93;;
43996;SDS011;34318;45.818;15.964;2023-08-20T13:26:31;14.95;;;11.85;;
43996;SDS011;34318;45.818;15.964;2023-08-20T13:28:58;15.02;;;12.80;;
43996;SDS011;34318;45.818;15.964;2023-08-20T13:31:25;15.43;;;13.02;;
43996;SDS011;34318;45.818;15.964;2023-08-20T13:33:52;21.92;;;16.98;;
43996;SDS011;34318;45.818;15.964;2023-08-20T13:36:20;23.98;;;18.90;;
43996;SDS011;34318;45.818;15.964;2023-08-20T13:38:47;19.45;;;17.33;;
43996;SDS011;34318;45.818;15.964;2023-08-20T13:41:14;18.52;;;16.75;;
43996;SDS011;34318;45.818;15.964;2023-08-20T13:43:43;17.73;;;15.95;;
43996;SDS011;34318;45.818;15.964;2023-08-20T13:46:11;20.48;;;17.00;;
43996;SDS011;34318;45.818;15.964;2023-08-20T13:48:38;20.35;;;17.55;;
43996;SDS011;34318;45.818;15.964;2023-08-20T13:51:05;22.88;;;16.77;;
43996;SDS011;34318;45.818;15.964;2023-08-20T13:53:33;22.67;;;17.25;;
43996;SDS011;34318;45.818;15.964;2023-08-20T13:56:00;17.65;;;15.48;;
43996;SDS011;34318;45.818;15.964;2023-08-20T13:58:28;20.55;;;16.02;;
43996;SDS011;34318;45.818;15.964;2023-08-20T14:00:55;20.83;;;17.00;;
43996;SDS011;34318;45.818;15.964;2023-08-20T14:03:22;22.70;;;18.92;;
43996;SDS011;34318;45.818;15.964;2023-08-20T14:05:50;24.10;;;21.45;;
43996;SDS011;34318;45.818;15.964;2023-08-20T14:08:18;26.25;;;23.65;;
43996;SDS011;34318;45.818;15.964;2023-08-20T14:10:46;26.48;;;22.88;;
43996;SDS011;34318;45.818;15.964;2023-08-20T14:13:13;24.83;;;22.33;;
43996;SDS011;34318;45.818;15.964;2023-08-20T14:15:40;25.58;;;21.75;;
43996;SDS011;34318;45.818;15.964;2023-08-20T14:18:08;28.17;;;20.63;;
43996;SDS011;34318;45.818;15.964;2023-08-20T14:20:36;28.20;;;21.10;;
43996;SDS011;34318;45.818;15.964;2023-08-20T14:23:03;23.42;;;20.20;;
43996;SDS011;34318;45.818;15.964;2023-08-20T14:25:31;26.85;;;19.98;;
43996;SDS011;34318;45.818;15.964;2023-08-20T14:27:58;24.27;;;21.00;;
43996;SDS011;34318;45.818;15.964;2023-08-20T14:30:25;23.25;;;20.33;;
43996;SDS011;34318;45.818;15.964;2023-08-20T14:32:53;23.20;;;20.17;;
43996;SDS011;34318;45.818;15.964;2023-08-20T14:35:20;22.40;;;19.88;;
43996;SDS011;34318;45.818;15.964;2023-08-20T14:37:47;22.10;;;19.23;;
43996;SDS011;34318;45.818;15.964;2023-08-20T14:40:15;25.08;;;19.90;;